createdAt,value
2018-04-27T00:01:35.693Z,8.70
2018-04-27T00:04:04.590Z,8.60
2018-04-27T00:06:33.484Z,8.60
2018-04-27T00:09:02.404Z,8.60
2018-04-27T00:11:30.526Z,8.60
2018-04-27T00:14:00.182Z,8.50
2018-04-27T00:16:28.312Z,8.50
2018-04-27T00:18:57.252Z,8.50
2018-04-27T00:21:25.409Z,8.40
2018-04-27T00:23:53.593Z,8.40
2018-04-27T00:26:21.753Z,8.40
2018-04-27T00:28:49.905Z,8.40
2018-04-27T00:31:18.088Z,8.40
2018-04-27T00:33:46.985Z,8.40
2018-04-27T00:36:15.188Z,8.40
2018-04-27T00:38:43.317Z,8.40
2018-04-27T00:41:12.219Z,8.40
2018-04-27T00:43:40.416Z,8.30
2018-04-27T00:46:08.557Z,8.30
2018-04-27T00:48:37.501Z,8.30
2018-04-27T00:51:05.653Z,8.30
2018-04-27T00:53:33.779Z,8.30
2018-04-27T00:56:03.432Z,8.30
2018-04-27T00:58:31.599Z,8.30
2018-04-27T01:00:59.783Z,8.30
2018-04-27T01:03:27.928Z,8.30
2018-04-27T01:05:56.842Z,8.30
2018-04-27T01:08:24.980Z,8.30
2018-04-27T01:10:53.914Z,8.40
2018-04-27T01:13:22.064Z,8.30
2018-04-27T01:15:50.218Z,8.40
2018-04-27T01:18:19.114Z,8.40
2018-04-27T01:20:48.038Z,8.40
2018-04-27T01:23:16.160Z,8.40
2018-04-27T01:25:45.828Z,8.40
2018-04-27T01:28:13.978Z,8.40
2018-04-27T01:30:42.247Z,8.40
2018-04-27T01:33:11.151Z,8.40
2018-04-27T01:35:39.290Z,8.40
2018-04-27T01:38:07.428Z,8.40
2018-04-27T01:40:35.558Z,8.40
2018-04-27T01:43:03.758Z,8.40
2018-04-27T01:45:31.908Z,8.40
2018-04-27T01:48:00.036Z,8.40
2018-04-27T01:50:28.200Z,8.40
2018-04-27T01:52:56.358Z,8.40
2018-04-27T01:55:24.492Z,8.30
2018-04-27T01:57:52.645Z,8.30
2018-04-27T02:00:20.859Z,8.30
2018-04-27T02:02:49.053Z,8.30
2018-04-27T02:05:17.195Z,8.20
2018-04-27T02:07:45.394Z,8.20
2018-04-27T02:10:13.541Z,8.20
2018-04-27T02:12:41.685Z,8.20
2018-04-27T02:15:10.566Z,8.10
2018-04-27T02:17:39.448Z,8.00
2018-04-27T02:20:07.578Z,8.00
2018-04-27T02:22:35.708Z,8.00
2018-04-27T02:25:04.588Z,7.90
2018-04-27T02:27:32.704Z,7.90
2018-04-27T02:30:00.827Z,7.90
2018-04-27T02:32:28.967Z,7.80
2018-04-27T02:34:57.090Z,7.80
2018-04-27T02:37:25.293Z,7.80
2018-04-27T02:39:53.418Z,7.80
2018-04-27T02:42:21.544Z,7.70
2018-04-27T02:44:49.662Z,7.70
2018-04-27T02:47:17.783Z,7.70
2018-04-27T02:49:45.931Z,7.60
2018-04-27T02:52:14.829Z,7.60
2018-04-27T02:54:43.725Z,7.60
2018-04-27T02:57:11.859Z,7.50
2018-04-27T02:59:39.973Z,7.50
2018-04-27T03:02:08.105Z,7.50
2018-04-27T03:04:36.215Z,7.50
2018-04-27T03:07:04.338Z,7.50
2018-04-27T03:09:32.479Z,7.50
2018-04-27T03:12:00.634Z,7.50
2018-04-27T03:14:28.742Z,7.50
2018-04-27T03:16:56.854Z,7.50
2018-04-27T03:19:25.753Z,7.40
2018-04-27T03:21:54.677Z,7.40
2018-04-27T03:24:22.796Z,7.40
2018-04-27T03:26:50.907Z,7.40
2018-04-27T03:29:19.071Z,7.40
2018-04-27T03:31:47.951Z,7.40
2018-04-27T03:34:16.948Z,7.40
2018-04-27T03:36:44.991Z,7.40
2018-04-27T03:39:13.105Z,7.40
2018-04-27T03:41:41.240Z,7.40
2018-04-27T03:44:09.368Z,7.40
2018-04-27T03:46:37.522Z,7.40
2018-04-27T03:49:05.649Z,7.40
2018-04-27T03:51:33.800Z,7.40
2018-04-27T03:54:01.919Z,7.40
2018-04-27T03:56:30.808Z,7.50
2018-04-27T03:58:59.699Z,7.50
2018-04-27T04:01:40.488Z,7.50
2018-04-27T04:04:20.508Z,7.50
2018-04-27T04:06:49.436Z,7.50
2018-04-27T04:09:17.554Z,7.50
2018-04-27T04:11:45.686Z,7.50
2018-04-27T04:14:13.834Z,7.50
2018-04-27T04:16:41.960Z,7.50
2018-04-27T04:19:10.057Z,7.50
2018-04-27T04:21:38.223Z,7.50
2018-04-27T04:24:06.439Z,7.50
2018-04-27T04:26:34.567Z,7.60
2018-04-27T04:29:02.694Z,7.60
2018-04-27T04:31:30.803Z,7.60
2018-04-27T04:33:59.020Z,7.60
2018-04-27T04:36:27.903Z,7.60
2018-04-27T04:38:56.778Z,7.60
2018-04-27T04:41:25.683Z,7.60
2018-04-27T04:43:54.571Z,7.70
2018-04-27T04:46:23.485Z,7.70
2018-04-27T04:48:51.607Z,7.70
2018-04-27T04:51:19.715Z,7.70
2018-04-27T04:53:48.618Z,7.70
2018-04-27T04:56:16.730Z,7.70
2018-04-27T04:58:44.839Z,7.80
2018-04-27T05:01:13.761Z,7.90
2018-04-27T05:03:41.915Z,7.80
2018-04-27T05:06:10.791Z,8.00
2018-04-27T05:08:39.699Z,8.00
2018-04-27T05:11:07.847Z,8.00
2018-04-27T05:13:36.765Z,8.20
2018-04-27T05:16:04.899Z,8.20
2018-04-27T05:18:53.715Z,8.30
2018-04-27T05:21:21.858Z,8.40
2018-04-27T05:23:50.751Z,8.60
2018-04-27T05:26:18.933Z,8.60
2018-04-27T05:28:47.053Z,8.70
2018-04-27T05:31:23.108Z,8.80
2018-04-27T05:33:51.236Z,8.90
2018-04-27T05:36:20.084Z,9.00
2018-04-27T05:38:48.300Z,9.10
2018-04-27T05:41:16.472Z,9.20
2018-04-27T05:43:44.626Z,9.30
2018-04-27T05:46:13.515Z,9.50
2018-04-27T05:48:42.398Z,9.60
2018-04-27T05:51:10.510Z,9.50
2018-04-27T05:53:38.631Z,9.70
2018-04-27T05:56:06.745Z,9.80
2018-04-27T05:58:34.847Z,9.90
2018-04-27T06:01:02.977Z,10.00
2018-04-27T06:06:31.380Z,10.20
2018-04-27T06:08:59.531Z,10.30
2018-04-27T06:11:27.652Z,10.40
2018-04-27T06:13:55.780Z,10.50
2018-04-27T06:16:24.695Z,10.70
2018-04-27T06:18:52.816Z,10.70
2018-04-27T06:21:20.956Z,10.70
2018-04-27T06:23:49.092Z,10.90
2018-04-27T06:26:18.007Z,11.00
2018-04-27T06:28:48.031Z,11.00
2018-04-27T06:31:16.185Z,11.20
2018-04-27T06:33:44.323Z,11.30
2018-04-27T06:36:12.444Z,11.40
2018-04-27T06:38:40.563Z,11.50
2018-04-27T06:41:08.708Z,11.60
2018-04-27T06:43:36.839Z,11.70
2018-04-27T06:46:04.976Z,11.80
2018-04-27T06:48:33.210Z,11.90
2018-04-27T06:51:01.387Z,12.00
2018-04-27T06:53:29.518Z,12.10
2018-04-27T06:55:58.534Z,12.30
2018-04-27T06:58:26.713Z,12.30
2018-04-27T07:00:54.848Z,12.40
2018-04-27T07:03:22.996Z,12.50
2018-04-27T07:05:51.136Z,12.60
2018-04-27T07:08:19.303Z,12.60
2018-04-27T07:10:47.489Z,12.70
2018-04-27T07:13:15.649Z,12.80
2018-04-27T07:15:43.811Z,12.90
2018-04-27T07:18:12.839Z,13.20
2018-04-27T07:20:40.963Z,13.10
2018-04-27T07:23:09.903Z,13.40
2018-04-27T07:25:38.011Z,13.40
2018-04-27T07:28:06.133Z,13.50
2018-04-27T07:30:34.271Z,13.60
2018-04-27T07:33:02.407Z,13.70
2018-04-27T07:35:30.542Z,13.80
2018-04-27T07:37:59.457Z,14.00
2018-04-27T07:40:27.601Z,14.00
2018-04-27T07:42:56.487Z,14.30
2018-04-27T07:45:25.399Z,14.40
2018-04-27T07:47:53.512Z,14.50
2018-04-27T07:50:21.629Z,14.60
2018-04-27T07:52:49.786Z,14.80
2018-04-27T07:55:18.757Z,15.10
2018-04-27T07:57:46.876Z,15.10
2018-04-27T08:00:14.999Z,15.30
2018-04-27T08:02:43.132Z,15.40
2018-04-27T08:05:11.296Z,15.50
2018-04-27T08:07:40.204Z,15.60
2018-04-27T08:10:08.316Z,15.60
2018-04-27T08:12:36.527Z,15.70
2018-04-27T08:15:04.702Z,15.80
2018-04-27T08:17:32.888Z,15.90
2018-04-27T08:20:01.014Z,16.00
2018-04-27T08:22:29.154Z,16.10
2018-04-27T08:24:57.296Z,16.30
2018-04-27T08:27:25.436Z,16.40
2018-04-27T08:29:53.557Z,16.60
2018-04-27T08:32:21.723Z,16.70
2018-04-27T08:34:50.712Z,17.00
2018-04-27T08:37:18.839Z,16.90
2018-04-27T08:39:46.971Z,17.10
2018-04-27T08:42:15.146Z,17.20
2018-04-27T08:44:43.262Z,17.40
2018-04-27T08:47:11.396Z,17.50
2018-04-27T08:49:39.524Z,17.60
2018-04-27T08:52:08.462Z,17.70
2018-04-27T08:54:36.630Z,17.70
2018-04-27T08:57:04.772Z,17.80
2018-04-27T08:59:33.664Z,18.10
2018-04-27T09:02:02.578Z,18.20
2018-04-27T09:04:30.695Z,18.20
2018-04-27T09:06:58.852Z,18.30
2018-04-27T09:09:26.984Z,18.40
2018-04-27T09:11:55.102Z,18.50
2018-04-27T09:14:23.336Z,18.50
2018-04-27T09:16:51.472Z,18.60
2018-04-27T09:19:19.608Z,18.80
2018-04-27T09:21:47.773Z,18.80
2018-04-27T09:24:15.912Z,18.90
2018-04-27T09:26:44.805Z,18.90
2018-04-27T09:29:13.696Z,18.90
2018-04-27T09:31:42.571Z,19.00
2018-04-27T09:34:10.772Z,19.00
2018-04-27T09:36:38.956Z,19.00
2018-04-27T09:39:07.072Z,19.10
2018-04-27T09:41:35.183Z,19.20
2018-04-27T09:44:04.091Z,19.30
2018-04-27T09:46:32.986Z,19.40
2018-04-27T09:49:01.150Z,19.40
2018-04-27T09:51:29.278Z,19.50
2018-04-27T09:53:57.435Z,19.60
2018-04-27T09:56:25.567Z,19.60
2018-04-27T09:58:53.735Z,19.60
2018-04-27T10:01:21.869Z,19.70
2018-04-27T10:03:49.998Z,19.70
2018-04-27T10:06:18.142Z,19.80
2018-04-27T10:08:47.046Z,19.90
2018-04-27T10:11:15.924Z,20.00
2018-04-27T10:13:44.812Z,20.00
2018-04-27T10:16:13.718Z,20.10
2018-04-27T10:18:42.609Z,20.20
2018-04-27T10:21:11.473Z,20.20
2018-04-27T10:23:39.605Z,20.20
2018-04-27T10:26:07.751Z,20.30
2018-04-27T10:28:35.910Z,20.30
2018-04-27T10:31:04.859Z,20.40
2018-04-27T10:33:32.941Z,20.40
2018-04-27T10:36:01.154Z,20.60
2018-04-27T10:38:29.278Z,20.70
2018-04-27T10:40:57.430Z,20.70
2018-04-27T10:43:25.597Z,20.80
2018-04-27T10:45:53.855Z,20.90
2018-04-27T10:48:22.873Z,21.00
2018-04-27T10:50:50.975Z,20.90
2018-04-27T10:53:19.089Z,21.00
2018-04-27T10:55:47.387Z,20.80
2018-04-27T10:58:15.521Z,20.80
2018-04-27T11:00:44.407Z,20.80
2018-04-27T11:03:12.528Z,20.80
2018-04-27T11:05:40.676Z,20.80
2018-04-27T11:08:09.697Z,21.00
2018-04-27T11:10:37.856Z,21.00
2018-04-27T11:13:06.724Z,21.10
2018-04-27T11:15:35.623Z,21.10
2018-04-27T11:18:03.749Z,21.10
2018-04-27T11:20:31.883Z,21.00
2018-04-27T11:23:00.001Z,21.00
2018-04-27T11:25:28.139Z,21.00
2018-04-27T11:27:56.301Z,20.90
2018-04-27T11:30:24.433Z,20.90
2018-04-27T11:32:52.575Z,20.90
2018-04-27T11:35:20.723Z,21.00
2018-04-27T11:37:49.603Z,21.20
2018-04-27T11:40:17.720Z,21.10
2018-04-27T11:42:45.841Z,21.20
2018-04-27T11:45:14.738Z,21.30
2018-04-27T11:47:43.705Z,21.20
2018-04-27T11:50:11.820Z,21.20
2018-04-27T11:52:39.927Z,21.20
2018-04-27T11:55:08.160Z,21.10
2018-04-27T11:57:36.303Z,21.00
2018-04-27T12:00:05.191Z,20.90
2018-04-27T12:02:34.081Z,20.90
2018-04-27T12:05:02.980Z,20.90
2018-04-27T12:07:31.893Z,21.00
2018-04-27T12:10:00.019Z,20.90
2018-04-27T12:12:28.140Z,21.00
2018-04-27T12:14:56.268Z,21.10
2018-04-27T12:17:24.423Z,21.10
2018-04-27T12:19:52.556Z,21.10
2018-04-27T12:22:20.749Z,21.10
2018-04-27T12:24:48.863Z,21.10
2018-04-27T12:27:17.050Z,21.20
2018-04-27T12:29:45.267Z,21.30
2018-04-27T12:32:13.375Z,21.40
2018-04-27T12:34:41.496Z,21.40
2018-04-27T12:37:09.672Z,21.50
2018-04-27T12:39:37.819Z,21.50
2018-04-27T12:42:05.932Z,21.50
2018-04-27T12:44:34.090Z,21.60
2018-04-27T12:47:02.206Z,21.70
2018-04-27T12:49:30.450Z,21.80
2018-04-27T12:51:58.589Z,22.00
2018-04-27T12:54:26.784Z,22.00
2018-04-27T12:56:54.920Z,22.00
2018-04-27T12:59:23.096Z,22.00
2018-04-27T13:01:52.735Z,21.90
2018-04-27T13:04:20.863Z,21.90
2018-04-27T13:06:49.006Z,21.90
2018-04-27T13:09:17.178Z,21.80
2018-04-27T13:11:45.294Z,21.80
2018-04-27T13:14:13.428Z,21.80
2018-04-27T13:16:41.601Z,21.80
2018-04-27T13:19:09.882Z,21.90
2018-04-27T13:21:38.612Z,22.00
2018-04-27T13:24:06.816Z,21.90
2018-04-27T13:26:35.054Z,22.00
2018-04-27T13:29:03.133Z,22.10
2018-04-27T13:31:31.265Z,22.10
2018-04-27T13:33:59.420Z,22.20
2018-04-27T13:36:27.588Z,22.20
2018-04-27T13:38:55.732Z,22.20
2018-04-27T13:41:23.860Z,22.20
2018-04-27T13:43:52.032Z,22.30
2018-04-27T13:46:20.161Z,22.30
2018-04-27T13:48:48.318Z,22.30
2018-04-27T13:51:16.440Z,22.30
2018-04-27T13:53:44.572Z,22.30
2018-04-27T13:56:12.720Z,22.30
2018-04-27T13:58:40.867Z,22.30
2018-04-27T14:01:09.048Z,22.30
2018-04-27T14:03:37.147Z,22.20
2018-04-27T14:06:05.288Z,22.30
2018-04-27T14:08:33.467Z,22.30
2018-04-27T14:11:01.624Z,22.30
2018-04-27T14:13:29.769Z,22.30
2018-04-27T14:15:58.659Z,22.30
2018-04-27T14:18:26.784Z,22.30
2018-04-27T14:20:55.172Z,22.40
2018-04-27T14:23:23.317Z,22.40
2018-04-27T14:25:51.466Z,22.40
2018-04-27T14:28:20.367Z,22.50
2018-04-27T14:30:48.508Z,22.50
2018-04-27T14:33:16.623Z,22.50
2018-04-27T14:35:44.753Z,22.50
2018-04-27T14:38:12.855Z,22.60
2018-04-27T14:40:41.015Z,22.60
2018-04-27T14:43:09.899Z,22.60
2018-04-27T14:45:38.802Z,22.60
2018-04-27T14:48:07.697Z,22.60
2018-04-27T14:50:35.861Z,22.60
2018-04-27T14:53:04.754Z,22.60
2018-04-27T14:55:33.649Z,22.50
2018-04-27T14:58:02.549Z,22.50
2018-04-27T15:00:30.846Z,22.50
2018-04-27T15:02:58.953Z,22.60
2018-04-27T15:05:27.103Z,22.70
2018-04-27T15:07:55.260Z,22.80
2018-04-27T15:10:23.428Z,22.80
2018-04-27T15:12:51.551Z,22.80
2018-04-27T15:15:19.692Z,23.00
2018-04-27T15:17:47.948Z,23.10
2018-04-27T15:20:16.080Z,23.30
2018-04-27T15:22:44.197Z,23.30
2018-04-27T15:25:12.332Z,23.30
2018-04-27T15:27:40.470Z,23.30
2018-04-27T15:30:08.713Z,23.30
2018-04-27T15:32:37.600Z,23.40
2018-04-27T15:35:05.729Z,23.40
2018-04-27T15:37:33.976Z,23.40
2018-04-27T15:40:02.222Z,23.30
2018-04-27T15:42:30.284Z,23.30
2018-04-27T15:44:59.174Z,23.20
2018-04-27T15:47:28.205Z,23.20
2018-04-27T15:49:56.314Z,23.20
2018-04-27T15:52:24.434Z,23.20
2018-04-27T15:54:52.584Z,23.20
2018-04-27T15:57:21.573Z,23.30
2018-04-27T15:59:49.656Z,23.30
2018-04-27T16:02:18.540Z,23.40
2018-04-27T16:04:48.383Z,23.50
2018-04-27T16:07:16.518Z,23.40
2018-04-27T16:09:45.435Z,23.50
2018-04-27T16:12:13.564Z,23.40
2018-04-27T16:14:41.708Z,23.40
2018-04-27T16:17:09.861Z,23.50
2018-04-27T16:19:38.016Z,23.40
2018-04-27T16:22:06.933Z,23.30
2018-04-27T16:24:35.038Z,23.30
2018-04-27T16:27:03.258Z,23.30
2018-04-27T16:29:32.181Z,23.10
2018-04-27T16:32:00.345Z,23.10
2018-04-27T16:34:28.514Z,23.10
2018-04-27T16:36:56.662Z,23.00
2018-04-27T16:39:25.574Z,23.00
2018-04-27T16:41:53.750Z,23.00
2018-04-27T16:44:21.827Z,23.00
2018-04-27T16:46:49.981Z,22.90
2018-04-27T16:49:18.147Z,22.80
2018-04-27T16:51:47.038Z,22.70
2018-04-27T16:54:15.937Z,22.60
2018-04-27T16:56:44.873Z,22.60
2018-04-27T16:59:13.023Z,22.60
2018-04-27T17:01:41.209Z,22.50
2018-04-27T17:04:09.361Z,22.40
2018-04-27T17:06:37.471Z,22.30
2018-04-27T17:09:05.629Z,22.30
2018-04-27T17:11:33.749Z,22.30
2018-04-27T17:14:02.665Z,22.30
2018-04-27T17:16:30.791Z,22.30
2018-04-27T17:18:58.939Z,22.30
2018-04-27T17:21:27.061Z,22.30
2018-04-27T17:23:55.971Z,22.20
2018-04-27T17:26:24.155Z,22.20
2018-04-27T17:28:52.336Z,22.20
2018-04-27T17:31:20.509Z,22.10
2018-04-27T17:33:48.630Z,22.00
2018-04-27T17:36:16.749Z,21.90
2018-04-27T17:38:44.959Z,21.80
2018-04-27T17:41:13.106Z,21.70
2018-04-27T17:43:41.227Z,21.60
2018-04-27T17:46:09.345Z,21.60
2018-04-27T17:48:37.521Z,21.60
2018-04-27T17:51:05.645Z,21.50
2018-04-27T17:53:33.777Z,21.40
2018-04-27T17:56:01.895Z,21.40
2018-04-27T17:58:30.067Z,21.30
2018-04-27T18:00:58.193Z,21.30
2018-04-27T18:03:26.332Z,21.30
2018-04-27T18:05:55.211Z,21.20
2018-04-27T18:08:24.093Z,21.20
2018-04-27T18:10:52.214Z,21.20
2018-04-27T18:13:20.379Z,21.10
2018-04-27T18:15:48.568Z,21.00
2018-04-27T18:18:16.672Z,20.90
2018-04-27T18:20:44.809Z,20.90
2018-04-27T18:23:13.009Z,20.70
2018-04-27T18:25:41.163Z,20.70
2018-04-27T18:28:10.753Z,20.50
2018-04-27T18:30:38.903Z,20.50
2018-04-27T18:33:07.797Z,20.30
2018-04-27T18:35:36.751Z,20.30
2018-04-27T18:38:04.865Z,20.30
2018-04-27T18:40:33.890Z,20.10
2018-04-27T18:43:02.054Z,20.10
2018-04-27T18:45:30.235Z,20.00
2018-04-27T18:47:58.386Z,19.90
2018-04-27T18:50:28.009Z,19.80
2018-04-27T18:52:56.166Z,19.80
2018-04-27T18:55:25.077Z,19.70
2018-04-27T18:57:53.216Z,19.70
2018-04-27T19:00:21.412Z,19.70
2018-04-27T19:02:49.536Z,19.60
2018-04-27T19:05:17.674Z,19.60
2018-04-27T19:07:45.808Z,19.50
2018-04-27T19:10:14.717Z,19.50
2018-04-27T19:12:43.604Z,19.40
2018-04-27T19:15:12.484Z,19.40
2018-04-27T19:17:41.406Z,19.40
2018-04-27T19:20:09.534Z,19.40
2018-04-27T19:22:37.656Z,19.30
2018-04-27T19:25:05.832Z,19.30
2018-04-27T19:27:33.958Z,19.30
2018-04-27T19:30:02.078Z,19.30
2018-04-27T19:32:30.212Z,19.30
2018-04-27T19:34:59.100Z,19.20
2018-04-27T19:37:28.071Z,19.10
2018-04-27T19:39:56.124Z,19.10
2018-04-27T19:42:24.260Z,19.10
2018-04-27T19:44:53.173Z,19.00
2018-04-27T19:47:21.288Z,19.00
2018-04-27T19:49:49.440Z,18.90
2018-04-27T19:52:17.580Z,18.90
2018-04-27T19:54:45.697Z,18.80
2018-04-27T19:57:13.828Z,18.80
2018-04-27T19:59:41.961Z,18.70
2018-04-27T20:02:10.124Z,18.60
2018-04-27T20:04:38.250Z,18.60
2018-04-27T20:07:06.372Z,18.50
2018-04-27T20:09:34.528Z,18.50
2018-04-27T20:12:02.840Z,18.40
2018-04-27T20:14:34.626Z,18.40
2018-04-27T20:17:05.754Z,18.40
2018-04-27T20:19:40.083Z,18.30
2018-04-27T20:25:04.786Z,18.30
2018-04-27T20:27:45.284Z,18.20
2018-04-27T20:30:15.299Z,18.20
2018-04-27T20:32:46.242Z,18.20
2018-04-27T20:35:15.180Z,18.10
2018-04-27T20:37:45.944Z,18.10
2018-04-27T20:40:14.935Z,18.10
2018-04-27T20:42:43.091Z,18.10
2018-04-27T20:45:18.537Z,18.00
2018-04-27T20:47:47.467Z,18.00
2018-04-27T20:50:15.591Z,18.00
2018-04-27T20:52:44.508Z,18.00
2018-04-27T20:55:15.199Z,18.00
2018-04-27T20:57:43.329Z,18.00
2018-04-27T21:00:11.473Z,18.00
2018-04-27T21:02:43.245Z,17.90
2018-04-27T21:05:11.371Z,17.90
2018-04-27T21:07:39.487Z,18.00
2018-04-27T21:10:07.679Z,17.90
2018-04-27T21:12:35.813Z,17.90
2018-04-27T21:15:04.869Z,17.90
2018-04-27T21:17:32.981Z,17.90
2018-04-27T21:20:01.891Z,17.90
2018-04-27T21:22:30.024Z,17.90
2018-04-27T21:24:58.170Z,17.80
2018-04-27T21:27:26.306Z,17.80
2018-04-27T21:29:55.229Z,17.80
2018-04-27T21:32:23.375Z,17.80
2018-04-27T21:34:52.260Z,17.70
2018-04-27T21:37:21.157Z,17.70
2018-04-27T21:39:50.067Z,17.70
2018-04-27T21:42:21.200Z,17.70
2018-04-27T21:44:49.348Z,17.70
2018-04-27T21:47:25.868Z,17.60
2018-04-27T21:49:54.856Z,17.60
2018-04-27T21:52:27.980Z,17.60
2018-04-27T21:54:56.197Z,17.50
2018-04-27T21:57:29.088Z,17.50
2018-04-27T21:59:59.876Z,17.40
2018-04-27T22:02:32.652Z,17.40
2018-04-27T22:08:14.300Z,17.30
2018-04-27T22:10:42.430Z,17.30
2018-04-27T22:13:10.592Z,17.30
2018-04-27T22:15:38.736Z,17.30
2018-04-27T22:18:06.864Z,17.30
2018-04-27T22:20:43.781Z,17.20
2018-04-27T22:23:11.912Z,17.20
2018-04-27T22:25:44.030Z,17.20
2018-04-27T22:28:12.207Z,17.10
2018-04-27T22:30:41.805Z,17.10
2018-04-27T22:33:31.806Z,17.00
2018-04-27T22:39:19.659Z,16.90
2018-04-27T22:42:11.582Z,16.80
2018-04-27T22:44:57.240Z,16.70
2018-04-27T22:47:32.112Z,16.60
2018-04-27T22:50:02.058Z,16.60
2018-04-27T22:52:33.757Z,16.60
2018-04-27T22:55:01.884Z,16.50
2018-04-27T22:57:36.850Z,16.50
2018-04-27T23:00:12.310Z,16.30
2018-04-27T23:02:40.443Z,16.40
2018-04-27T23:05:11.496Z,16.30
2018-04-27T23:07:41.318Z,16.20
2018-04-27T23:10:10.210Z,16.10
2018-04-27T23:12:41.686Z,16.00
2018-04-27T23:15:09.852Z,16.00
2018-04-27T23:17:38.121Z,16.00
2018-04-27T23:20:10.716Z,15.90
2018-04-27T23:22:40.744Z,15.90
2018-04-27T23:25:09.716Z,15.90
2018-04-27T23:27:37.842Z,15.80
2018-04-27T23:30:07.101Z,15.80
2018-04-27T23:32:37.019Z,15.80
2018-04-27T23:35:05.145Z,15.80
2018-04-27T23:37:35.008Z,15.70
2018-04-27T23:40:03.161Z,15.70
2018-04-27T23:42:31.297Z,15.70
2018-04-27T23:44:59.459Z,15.70
2018-04-27T23:47:27.579Z,15.60
2018-04-27T23:49:55.743Z,15.60
2018-04-27T23:52:24.631Z,15.60
2018-04-27T23:54:52.779Z,15.60
2018-04-27T23:57:20.887Z,15.50
2018-04-27T23:59:50.975Z,15.50
